createdAt,value
2023-03-16T00:01:41.878Z,31.33
2023-03-16T00:04:10.850Z,30.92
2023-03-16T00:06:41.119Z,29.50
2023-03-16T00:09:10.536Z,28.12
2023-03-16T00:11:39.162Z,26.85
2023-03-16T00:14:08.372Z,26.62
2023-03-16T00:16:39.374Z,28.95
2023-03-16T00:19:15.918Z,26.70
2023-03-16T00:21:46.405Z,27.95
2023-03-16T00:24:17.181Z,26.62
2023-03-16T00:26:47.818Z,26.23
2023-03-16T00:29:18.846Z,27.48
2023-03-16T00:31:47.681Z,24.90
2023-03-16T00:34:17.361Z,26.12
2023-03-16T00:36:50.416Z,26.23
2023-03-16T00:39:22.598Z,25.45
2023-03-16T00:41:51.980Z,26.23
2023-03-16T00:44:24.163Z,29.72
2023-03-16T00:46:55.002Z,29.27
2023-03-16T00:49:25.202Z,29.40
2023-03-16T00:51:53.948Z,24.25
2023-03-16T00:54:23.258Z,24.37
2023-03-16T00:56:54.640Z,23.50
2023-03-16T00:59:25.980Z,25.50
2023-03-16T01:01:55.161Z,21.82
2023-03-16T01:04:29.011Z,24.75
2023-03-16T01:06:59.170Z,23.45
2023-03-16T01:09:27.995Z,23.67
2023-03-16T01:11:58.350Z,21.73
2023-03-16T01:14:27.888Z,20.27
2023-03-16T01:16:56.614Z,20.60
2023-03-16T01:19:26.339Z,18.57
2023-03-16T01:21:56.611Z,16.32
2023-03-16T01:24:25.178Z,21.40
2023-03-16T01:26:54.064Z,17.00
2023-03-16T01:29:23.643Z,16.35
2023-03-16T01:31:55.663Z,18.17
2023-03-16T01:34:24.338Z,19.52
2023-03-16T01:36:53.702Z,19.57
2023-03-16T01:39:31.372Z,18.35
2023-03-16T01:42:00.184Z,20.23
2023-03-16T01:44:33.990Z,22.20
2023-03-16T01:47:04.537Z,18.70
2023-03-16T01:49:37.407Z,18.27
2023-03-16T01:52:27.614Z,16.82
2023-03-16T01:55:08.613Z,21.85
2023-03-16T01:57:42.355Z,20.43
2023-03-16T02:00:19.594Z,17.17
2023-03-16T02:03:16.027Z,19.80
2023-03-16T02:06:12.786Z,22.25
2023-03-16T02:08:45.760Z,23.32
2023-03-16T02:11:16.500Z,19.80
2023-03-16T02:13:46.944Z,18.92
2023-03-16T02:16:19.159Z,18.85
2023-03-16T02:18:48.436Z,16.35
2023-03-16T02:21:44.161Z,20.62
2023-03-16T02:24:13.083Z,17.73
2023-03-16T02:27:05.299Z,19.67
2023-03-16T02:30:05.522Z,20.55
2023-03-16T02:32:37.851Z,21.60
2023-03-16T02:35:08.381Z,20.20
2023-03-16T02:37:39.654Z,21.73
2023-03-16T02:40:32.312Z,19.65
2023-03-16T02:43:19.380Z,23.70
2023-03-16T02:45:58.780Z,21.20
2023-03-16T02:48:40.218Z,22.40
2023-03-16T02:51:10.551Z,18.23
2023-03-16T02:53:39.444Z,24.37
2023-03-16T02:56:12.077Z,20.90
2023-03-16T02:58:43.408Z,21.02
2023-03-16T03:01:14.545Z,20.32
2023-03-16T03:03:44.820Z,20.32
2023-03-16T03:06:15.147Z,22.25
2023-03-16T03:08:43.807Z,19.62
2023-03-16T03:11:13.759Z,23.55
2023-03-16T03:13:44.576Z,23.30
2023-03-16T03:16:16.021Z,29.07
2023-03-16T03:18:45.571Z,28.40
2023-03-16T03:21:16.455Z,30.05
2023-03-16T03:23:46.528Z,25.30
2023-03-16T03:26:15.527Z,29.23
2023-03-16T03:28:46.501Z,28.02
2023-03-16T03:31:17.409Z,27.17
2023-03-16T03:33:46.486Z,28.10
2023-03-16T03:36:16.384Z,29.55
2023-03-16T03:38:46.386Z,26.80
2023-03-16T03:41:17.464Z,32.00
2023-03-16T03:43:46.717Z,27.77
2023-03-16T03:46:18.937Z,35.48
2023-03-16T03:48:48.692Z,29.75
2023-03-16T03:51:17.485Z,33.25
2023-03-16T03:54:07.875Z,31.85
2023-03-16T03:56:54.351Z,27.65
2023-03-16T03:59:22.991Z,26.15
2023-03-16T04:02:12.985Z,32.00
2023-03-16T04:04:46.098Z,28.73
2023-03-16T04:07:15.691Z,30.62
2023-03-16T04:09:45.462Z,31.75
2023-03-16T04:12:18.548Z,28.55
2023-03-16T04:14:49.653Z,30.72
2023-03-16T04:17:19.843Z,30.97
2023-03-16T04:19:48.684Z,31.42
2023-03-16T04:22:18.892Z,32.85
2023-03-16T04:24:49.071Z,28.55
2023-03-16T04:27:18.057Z,33.55
2023-03-16T04:29:48.122Z,34.50
2023-03-16T04:32:18.021Z,30.88
2023-03-16T04:34:48.281Z,30.48
2023-03-16T04:37:17.989Z,29.50
2023-03-16T04:39:46.999Z,29.23
2023-03-16T04:42:18.525Z,27.67
2023-03-16T04:44:47.771Z,26.37
2023-03-16T04:47:17.057Z,27.15
2023-03-16T04:49:47.597Z,25.97
2023-03-16T04:52:18.640Z,25.08
2023-03-16T04:54:47.301Z,25.72
2023-03-16T04:57:19.122Z,29.82
2023-03-16T04:59:49.479Z,29.95
2023-03-16T05:02:20.552Z,34.92
2023-03-16T05:04:52.207Z,35.58
2023-03-16T05:07:24.273Z,37.93
2023-03-16T05:09:56.066Z,37.15
2023-03-16T05:12:25.023Z,35.05
2023-03-16T05:14:56.866Z,36.65
2023-03-16T05:17:30.672Z,36.98
2023-03-16T05:19:59.357Z,37.42
2023-03-16T05:22:29.842Z,37.80
2023-03-16T05:25:03.055Z,37.45
2023-03-16T05:27:34.090Z,37.63
2023-03-16T05:30:05.585Z,33.78
2023-03-16T05:32:35.324Z,40.00
2023-03-16T05:35:11.122Z,38.73
2023-03-16T05:37:41.928Z,37.10
2023-03-16T05:40:17.926Z,35.65
2023-03-16T05:42:53.648Z,34.88
2023-03-16T05:45:22.262Z,38.30
2023-03-16T05:47:53.156Z,37.17
2023-03-16T05:50:24.058Z,39.70
2023-03-16T05:52:54.993Z,39.27
2023-03-16T05:55:25.572Z,38.83
2023-03-16T05:57:58.147Z,40.80
2023-03-16T06:00:29.717Z,44.13
2023-03-16T06:03:01.288Z,37.50
2023-03-16T06:05:31.923Z,41.30
2023-03-16T06:08:01.398Z,38.92
2023-03-16T06:10:33.100Z,36.68
2023-03-16T06:13:01.945Z,37.38
2023-03-16T06:15:34.029Z,35.65
2023-03-16T06:18:05.555Z,38.13
2023-03-16T06:20:35.878Z,39.08
2023-03-16T06:23:05.132Z,32.88
2023-03-16T06:25:35.649Z,38.08
2023-03-16T06:28:05.973Z,35.25
2023-03-16T06:30:36.467Z,36.58
2023-03-16T06:33:06.411Z,37.35
2023-03-16T06:35:35.770Z,29.85
2023-03-16T06:38:06.994Z,31.82
2023-03-16T06:40:44.743Z,36.90
2023-03-16T06:43:15.996Z,34.90
2023-03-16T06:45:46.697Z,32.40
2023-03-16T06:48:15.954Z,34.08
2023-03-16T06:50:48.158Z,28.50
2023-03-16T06:53:18.635Z,26.02
2023-03-16T06:55:48.728Z,26.60
2023-03-16T06:58:18.770Z,28.23
2023-03-16T07:00:48.537Z,26.07
2023-03-16T07:03:17.771Z,27.30
2023-03-16T07:05:48.679Z,30.17
2023-03-16T07:08:18.713Z,26.87
2023-03-16T07:10:50.300Z,29.42
2023-03-16T07:13:19.614Z,32.15
2023-03-16T07:15:52.696Z,29.18
2023-03-16T07:18:22.743Z,30.20
2023-03-16T07:20:55.265Z,29.48
2023-03-16T07:23:25.967Z,30.02
2023-03-16T07:25:56.747Z,30.27
2023-03-16T07:28:27.772Z,29.90
2023-03-16T07:31:03.811Z,29.35
2023-03-16T07:33:30.563Z,25.30
2023-03-16T07:36:02.909Z,25.48
2023-03-16T07:38:33.133Z,29.40
2023-03-16T07:41:03.778Z,28.50
2023-03-16T07:43:34.504Z,31.95
2023-03-16T07:46:03.973Z,30.02
2023-03-16T07:48:35.280Z,29.20
2023-03-16T07:51:05.804Z,30.10
2023-03-16T07:53:34.931Z,27.30
2023-03-16T07:56:08.763Z,30.45
2023-03-16T07:58:39.164Z,29.60
2023-03-16T08:01:10.567Z,31.57
2023-03-16T08:03:39.978Z,28.38
2023-03-16T08:06:11.862Z,29.02
2023-03-16T08:08:42.802Z,30.00
2023-03-16T08:11:13.053Z,28.83
2023-03-16T08:13:56.328Z,30.15
2023-03-16T08:16:27.886Z,32.05
2023-03-16T08:18:59.020Z,30.43
2023-03-16T08:21:30.193Z,29.87
2023-03-16T08:23:59.323Z,31.85
2023-03-16T08:26:31.409Z,33.33
2023-03-16T08:29:02.156Z,33.90
2023-03-16T08:31:33.227Z,27.75
2023-03-16T08:34:06.083Z,29.42
2023-03-16T08:36:37.799Z,30.40
2023-03-16T08:39:08.077Z,34.88
2023-03-16T08:41:40.346Z,30.97
2023-03-16T08:44:12.629Z,32.48
2023-03-16T08:46:42.433Z,31.97
2023-03-16T08:49:13.404Z,31.35
2023-03-16T08:51:45.058Z,30.40
2023-03-16T08:54:15.201Z,33.20
2023-03-16T08:56:44.238Z,33.55
2023-03-16T08:59:23.629Z,32.28
2023-03-16T09:01:44.076Z,32.30
2023-03-16T09:04:14.774Z,32.78
2023-03-16T09:06:45.616Z,30.65
2023-03-16T09:09:16.196Z,34.27
2023-03-16T09:11:47.957Z,34.65
2023-03-16T09:14:16.566Z,35.15
2023-03-16T09:16:48.193Z,33.05
2023-03-16T09:19:16.830Z,32.42
2023-03-16T09:21:47.445Z,31.10
2023-03-16T09:24:16.367Z,30.50
2023-03-16T09:26:47.236Z,33.95
2023-03-16T09:29:16.403Z,31.40
2023-03-16T09:31:46.022Z,30.08
2023-03-16T09:34:15.710Z,33.10
2023-03-16T09:36:45.031Z,30.88
2023-03-16T09:39:15.956Z,32.33
2023-03-16T09:42:15.457Z,34.92
2023-03-16T09:45:16.594Z,37.23
2023-03-16T09:47:46.406Z,29.72
2023-03-16T09:50:24.430Z,34.85
2023-03-16T09:53:24.676Z,34.30
2023-03-16T09:55:57.643Z,30.23
2023-03-16T09:58:27.175Z,27.32
2023-03-16T10:01:22.769Z,33.60
2023-03-16T10:04:46.119Z,36.30
2023-03-16T10:07:52.049Z,27.60
2023-03-16T10:10:40.775Z,27.85
2023-03-16T10:13:36.045Z,29.57
2023-03-16T10:16:15.324Z,26.60
2023-03-16T10:18:48.667Z,29.00
2023-03-16T10:21:19.032Z,29.70
2023-03-16T10:23:48.986Z,32.00
2023-03-16T10:26:29.502Z,30.20
2023-03-16T10:29:01.794Z,31.80
2023-03-16T10:31:39.406Z,27.85
2023-03-16T10:34:11.471Z,29.57
2023-03-16T10:36:42.193Z,31.82
2023-03-16T10:39:16.701Z,28.15
2023-03-16T10:41:50.266Z,30.48
2023-03-16T10:44:29.663Z,33.00
2023-03-16T10:47:05.416Z,28.62
2023-03-16T10:49:44.558Z,32.28
2023-03-16T10:52:24.868Z,29.50
2023-03-16T10:55:00.142Z,39.03
2023-03-16T10:57:34.029Z,35.52
2023-03-16T11:00:23.917Z,24.57
2023-03-16T11:02:57.591Z,32.58
2023-03-16T11:05:31.576Z,24.20
2023-03-16T11:08:10.399Z,24.12
2023-03-16T11:10:55.567Z,28.62
2023-03-16T11:16:35.128Z,25.97
2023-03-16T11:19:27.012Z,26.60
2023-03-16T11:22:10.817Z,28.75
2023-03-16T11:24:44.900Z,32.95
2023-03-16T11:27:28.849Z,26.90
2023-03-16T11:30:17.590Z,27.22
2023-03-16T11:32:50.871Z,23.38
2023-03-16T11:35:41.979Z,42.33
2023-03-16T11:38:21.360Z,25.82
2023-03-16T11:41:03.016Z,25.48
2023-03-16T11:43:56.538Z,31.30
2023-03-16T11:46:37.132Z,27.90
2023-03-16T11:49:49.617Z,31.93
2023-03-16T11:52:56.994Z,24.87
2023-03-16T11:56:01.617Z,28.77
2023-03-16T11:59:07.880Z,30.15
2023-03-16T12:02:01.823Z,24.52
2023-03-16T12:04:49.502Z,31.30
2023-03-16T12:07:52.894Z,37.23
2023-03-16T12:10:41.345Z,24.35
2023-03-16T12:13:38.264Z,27.13
2023-03-16T12:16:21.467Z,25.08
2023-03-16T12:18:57.748Z,26.40
2023-03-16T12:21:38.443Z,23.18
2023-03-16T12:24:11.195Z,33.05
2023-03-16T12:26:41.347Z,37.53
2023-03-16T12:29:35.254Z,29.27
2023-03-16T12:32:45.473Z,30.55
2023-03-16T12:35:59.701Z,29.60
2023-03-16T12:38:59.872Z,24.98
2023-03-16T12:42:12.447Z,26.35
2023-03-16T12:44:54.899Z,27.48
2023-03-16T12:47:54.286Z,25.65
2023-03-16T12:50:25.844Z,25.35
2023-03-16T12:52:54.471Z,25.27
2023-03-16T12:55:41.575Z,25.48
2023-03-16T12:58:12.988Z,27.60
2023-03-16T13:00:43.230Z,27.87
2023-03-16T13:03:16.927Z,30.65
2023-03-16T13:05:55.718Z,30.37
2023-03-16T13:08:25.749Z,29.32
2023-03-16T13:11:05.467Z,27.22
2023-03-16T13:13:38.317Z,27.13
2023-03-16T13:16:11.863Z,28.38
2023-03-16T13:18:43.269Z,27.32
2023-03-16T13:21:20.273Z,29.92
2023-03-16T13:24:03.282Z,23.35
2023-03-16T13:26:47.810Z,24.67
2023-03-16T13:29:30.463Z,25.95
2023-03-16T13:32:05.956Z,30.40
2023-03-16T13:34:50.675Z,24.77
2023-03-16T13:37:21.107Z,30.48
2023-03-16T13:39:57.597Z,26.17
2023-03-16T13:42:33.456Z,25.32
2023-03-16T13:45:16.152Z,26.23
2023-03-16T13:47:46.565Z,27.55
2023-03-16T13:50:16.236Z,22.98
2023-03-16T13:52:58.610Z,21.55
2023-03-16T13:55:36.287Z,20.82
2023-03-16T13:58:05.891Z,20.37
2023-03-16T14:00:36.785Z,22.93
2023-03-16T14:03:17.586Z,21.10
2023-03-16T14:05:49.431Z,19.45
2023-03-16T14:08:21.216Z,22.87
2023-03-16T14:10:51.082Z,24.00
2023-03-16T14:13:36.016Z,19.25
2023-03-16T14:16:19.577Z,17.80
2023-03-16T14:18:54.508Z,15.13
2023-03-16T14:21:28.255Z,14.50
2023-03-16T14:24:08.018Z,15.23
2023-03-16T14:26:45.196Z,16.73
2023-03-16T14:29:21.950Z,16.40
2023-03-16T14:31:50.843Z,11.35
2023-03-16T14:34:28.670Z,14.05
2023-03-16T14:37:13.777Z,15.28
2023-03-16T14:39:42.686Z,14.68
2023-03-16T14:42:30.907Z,16.32
2023-03-16T14:45:10.394Z,14.30
2023-03-16T14:47:46.142Z,15.13
2023-03-16T14:50:20.374Z,14.13
2023-03-16T14:52:52.746Z,12.80
2023-03-16T14:55:24.581Z,13.30
2023-03-16T14:57:55.302Z,12.58
2023-03-16T15:00:26.595Z,11.65
2023-03-16T15:03:09.716Z,14.05
2023-03-16T15:05:42.717Z,13.00
2023-03-16T15:08:17.345Z,11.00
2023-03-16T15:10:47.253Z,12.25
2023-03-16T15:13:36.288Z,14.13
2023-03-16T15:16:08.459Z,14.68
2023-03-16T15:18:42.402Z,13.60
2023-03-16T15:21:15.460Z,12.13
2023-03-16T15:23:45.332Z,14.70
2023-03-16T15:26:16.669Z,14.05
2023-03-16T15:28:46.382Z,14.18
2023-03-16T15:31:15.460Z,13.88
2023-03-16T15:33:45.250Z,16.05
2023-03-16T15:36:18.974Z,11.48
2023-03-16T15:38:52.430Z,11.10
2023-03-16T15:41:21.387Z,14.93
2023-03-16T15:43:52.660Z,13.13
2023-03-16T15:46:22.687Z,15.20
2023-03-16T15:48:51.580Z,13.75
2023-03-16T15:51:29.076Z,16.48
2023-03-16T15:54:00.239Z,14.38
2023-03-16T15:56:41.200Z,13.50
2023-03-16T15:59:09.680Z,13.58
2023-03-16T16:01:44.765Z,11.93
2023-03-16T16:04:19.329Z,15.30
2023-03-16T16:06:49.103Z,15.63
2023-03-16T16:09:19.494Z,12.68
2023-03-16T16:11:50.304Z,15.05
2023-03-16T16:14:24.660Z,14.20
2023-03-16T16:16:54.627Z,14.07
2023-03-16T16:19:23.527Z,16.55
2023-03-16T16:21:54.317Z,13.20
2023-03-16T16:24:23.422Z,11.03
2023-03-16T16:26:55.357Z,12.78
2023-03-16T16:29:26.374Z,14.60
2023-03-16T16:31:55.970Z,18.00
2023-03-16T16:34:28.548Z,16.37
2023-03-16T16:36:59.873Z,17.85
2023-03-16T16:39:30.725Z,18.57
2023-03-16T16:42:01.195Z,14.55
2023-03-16T16:44:37.619Z,13.83
2023-03-16T16:47:19.282Z,14.35
2023-03-16T16:49:50.900Z,14.38
2023-03-16T16:52:20.272Z,14.80
2023-03-16T16:54:50.446Z,14.23
2023-03-16T16:57:19.432Z,15.85
2023-03-16T16:59:49.751Z,12.18
2023-03-16T17:02:32.551Z,16.12
2023-03-16T17:05:04.363Z,14.78
2023-03-16T17:07:33.307Z,15.78
2023-03-16T17:10:03.916Z,19.32
2023-03-16T17:12:35.615Z,14.20
2023-03-16T17:15:14.333Z,14.83
2023-03-16T17:17:45.662Z,11.90
2023-03-16T17:20:20.515Z,13.65
2023-03-16T17:22:51.356Z,14.95
2023-03-16T17:25:29.567Z,14.58
2023-03-16T17:30:33.741Z,15.58
2023-03-16T17:33:09.584Z,16.67
2023-03-16T17:35:38.483Z,15.23
2023-03-16T17:38:17.837Z,15.28
2023-03-16T17:40:47.088Z,13.62
2023-03-16T17:43:18.689Z,14.80
2023-03-16T17:45:51.086Z,15.13
2023-03-16T17:48:22.545Z,12.63
2023-03-16T17:50:51.961Z,16.75
2023-03-16T17:53:21.717Z,15.32
2023-03-16T17:55:52.217Z,15.98
2023-03-16T17:58:31.483Z,12.90
2023-03-16T18:01:02.835Z,13.03
2023-03-16T18:03:32.621Z,14.45
2023-03-16T18:06:01.432Z,12.73
2023-03-16T18:08:33.909Z,12.00
2023-03-16T18:11:04.895Z,11.28
2023-03-16T18:13:37.849Z,11.05
2023-03-16T18:16:08.890Z,12.25
2023-03-16T18:18:39.371Z,11.30
2023-03-16T18:21:17.977Z,9.50
2023-03-16T18:23:47.214Z,11.93
2023-03-16T18:26:18.695Z,12.18
2023-03-16T18:28:50.282Z,12.07
2023-03-16T18:31:23.878Z,11.85
2023-03-16T18:33:58.036Z,10.93
2023-03-16T18:36:34.519Z,11.20
2023-03-16T18:39:07.366Z,9.63
2023-03-16T18:41:37.987Z,7.95
2023-03-16T18:44:18.613Z,9.23
2023-03-16T18:46:48.353Z,9.15
2023-03-16T18:49:24.366Z,10.40
2023-03-16T18:51:55.847Z,8.40
2023-03-16T18:54:30.573Z,9.35
2023-03-16T18:57:00.582Z,8.13
2023-03-16T18:59:31.253Z,8.48
2023-03-16T19:02:00.657Z,8.05
2023-03-16T19:04:32.790Z,9.15
2023-03-16T19:07:03.230Z,8.00
2023-03-16T19:09:32.341Z,9.23
2023-03-16T19:12:03.344Z,7.12
2023-03-16T19:14:32.971Z,5.80
2023-03-16T19:17:04.518Z,7.85
2023-03-16T19:19:34.035Z,6.45
2023-03-16T19:22:11.590Z,7.72
2023-03-16T19:24:52.480Z,6.78
2023-03-16T19:27:26.187Z,4.20
2023-03-16T19:29:56.944Z,8.30
2023-03-16T19:32:26.721Z,6.97
2023-03-16T19:34:57.546Z,5.85
2023-03-16T19:37:29.417Z,5.78
2023-03-16T19:40:00.551Z,5.58
2023-03-16T19:42:33.514Z,7.55
2023-03-16T19:45:04.403Z,7.28
2023-03-16T19:47:35.161Z,4.47
2023-03-16T19:50:18.201Z,4.87
2023-03-16T19:52:47.696Z,5.15
2023-03-16T19:55:23.259Z,5.28
2023-03-16T19:58:04.957Z,4.83
2023-03-16T20:00:36.077Z,5.47
2023-03-16T20:03:05.598Z,6.65
2023-03-16T20:05:36.713Z,4.62
2023-03-16T20:08:21.239Z,5.62
2023-03-16T20:10:50.377Z,6.00
2023-03-16T20:13:19.736Z,4.85
2023-03-16T20:15:49.408Z,3.77
2023-03-16T20:18:19.968Z,4.00
2023-03-16T20:20:50.806Z,4.35
2023-03-16T20:23:24.227Z,4.37
2023-03-16T20:25:56.070Z,3.58
2023-03-16T20:28:36.115Z,3.10
2023-03-16T20:31:09.090Z,4.30
2023-03-16T20:33:38.214Z,4.12
2023-03-16T20:36:12.116Z,3.55
2023-03-16T20:38:43.765Z,3.47
2023-03-16T20:41:30.996Z,4.03
2023-03-16T20:44:01.466Z,3.52
2023-03-16T20:46:32.689Z,2.47
2023-03-16T20:49:02.195Z,2.67
2023-03-16T20:51:31.365Z,4.12
2023-03-16T20:54:00.648Z,3.27
2023-03-16T20:56:30.720Z,3.92
2023-03-16T20:59:03.650Z,3.55
2023-03-16T21:01:34.668Z,4.55
2023-03-16T21:04:06.322Z,3.67
2023-03-16T21:06:36.044Z,3.60
2023-03-16T21:09:06.461Z,3.67
2023-03-16T21:11:37.988Z,4.95
2023-03-16T21:14:08.070Z,3.58
2023-03-16T21:16:36.832Z,3.83
2023-03-16T21:19:21.561Z,3.37
2023-03-16T21:21:51.216Z,4.03
2023-03-16T21:24:21.638Z,3.70
2023-03-16T21:26:51.629Z,4.50
2023-03-16T21:29:21.811Z,4.47
2023-03-16T21:31:52.550Z,4.75
2023-03-16T21:34:27.929Z,2.83
2023-03-16T21:36:59.180Z,5.00
2023-03-16T21:39:28.183Z,6.50
2023-03-16T21:42:02.200Z,7.05
2023-03-16T21:44:32.647Z,4.80
2023-03-16T21:47:02.857Z,5.15
2023-03-16T21:49:33.554Z,5.87
2023-03-16T21:55:12.233Z,2.35
2023-03-16T21:57:42.436Z,2.60
2023-03-16T22:00:23.128Z,3.30
2023-03-16T22:02:54.787Z,3.55
2023-03-16T22:05:39.222Z,2.65
2023-03-16T22:08:19.099Z,2.77
2023-03-16T22:10:49.461Z,1.82
2023-03-16T22:13:39.909Z,1.15
2023-03-16T22:16:16.896Z,1.95
2023-03-16T22:18:49.104Z,2.47
2023-03-16T22:21:35.348Z,2.40
2023-03-16T22:24:09.724Z,2.00
2023-03-16T22:26:39.110Z,3.27
2023-03-16T22:29:26.021Z,3.67
2023-03-16T22:32:02.242Z,2.15
2023-03-16T22:34:39.647Z,2.95
2023-03-16T22:37:10.921Z,1.45
2023-03-16T22:39:40.605Z,3.67
2023-03-16T22:42:36.337Z,4.35
2023-03-16T22:45:24.793Z,3.05
2023-03-16T22:47:56.265Z,2.50
2023-03-16T22:50:28.498Z,2.37
2023-03-16T22:53:01.078Z,3.75
2023-03-16T22:55:33.913Z,3.42
2023-03-16T22:58:17.964Z,3.22
2023-03-16T23:00:49.080Z,3.47
2023-03-16T23:03:22.004Z,2.60
2023-03-16T23:05:52.732Z,2.75
2023-03-16T23:08:23.182Z,2.60
2023-03-16T23:11:03.935Z,3.67
2023-03-16T23:13:37.390Z,1.90
2023-03-16T23:16:11.121Z,2.15
2023-03-16T23:18:42.534Z,3.75
2023-03-16T23:21:16.872Z,2.20
2023-03-16T23:24:02.579Z,2.10
2023-03-16T23:26:22.865Z,1.75
2023-03-16T23:28:55.866Z,2.95
2023-03-16T23:31:26.896Z,2.08
2023-03-16T23:33:56.292Z,3.05
2023-03-16T23:36:26.115Z,3.22
2023-03-16T23:38:57.344Z,2.33
2023-03-16T23:41:27.340Z,3.80
2023-03-16T23:43:58.275Z,2.67
2023-03-16T23:46:27.918Z,3.00
2023-03-16T23:48:58.523Z,3.55
2023-03-16T23:51:33.675Z,1.92
2023-03-16T23:54:04.606Z,3.33
2023-03-16T23:56:35.521Z,2.15
2023-03-16T23:59:06.480Z,5.03
